KEMT

San Gabriel Valley Airport

El Monte, California, USA
METAR KEMT 210255Z 19010KT 10SM CLR 25/18 A2990
Observed Flight Rules
Aug-21 @ 02:55 UTC (an hour ago) Visual Flight Rules
Wind Visibility Clouds
190° at 10 knots 10 miles
  • Clear skies
Temperatures Readings
Current 25°C / 77°F
Dewpoint 18°C / 64°F
Humidity 65%
Altimeter 29.9" Hg
Pressure 1013 hPa
Elevation 90
METAR KEMT 210255Z 19010KT 10SM CLR 25/18 A2990
Observed Flight Rules
Aug-21 @ 02:55 UTC
(an hour ago)
VFR
Wind Visibility
190° at 10 knots 10 miles
Clouds
  • Clear skies
Temperature Dewpoint
25°C / 77°F 18°C / 64°F
Humidity Altimeter Pressure
65% 29.9" Hg 1013 hPa